Klaber, Washington
Current Conditions -  °F | °C
As of 10:15 AM on Thursday 30 Oct 2014 (Local Time) from KCLS Reporting Station
Broken Clouds Broken Clouds  
Wind Chill: 57°   Ceiling: 4800
Heat Index: 57°   Visibility: 10mi
Dew Point: 55°   Wind: 3mph
Humidity: 94%   Direction: 200°SSW
Pressure: 29.84"   Gusts: NA
Location:  46.5326°N, 123.142°W
Report Text: KCLS 301715Z AUTO 20003KT 10SM BKN048 BKN095 14/13 A2984 RMK AO2
Loading
Personal Weather Stations






























Interactive Weather Map
Tropical Storm Tracking
New forecast layout! Learn more

10-Day Weather Forecast

Advertisements
Track Severe Weather on mobile